Chazy, NY (12921)

4:03 AM EDT on July 29, 2016 (GMT -0400)
Chazy, NY | | Change Station

Elev 167 ft 44.88 °N, 73.43 °W | Updated 21 seconds ago

Overcast
Overcast
65.8 °F
Feels Like 65.8 °F
N
1.6
Wind Variable Wind from NNW
Gusts 4.0 mph

Today
High -- | Low -- °F
--% Chance of Precip.
Yesterday
High -- | Low -- °F
Precip. -- in
Pressure 29.89 in
Visibility 8.0 miles
Clouds Overcast 11000 ft
Dew Point 65 °F
Humidity 98%
Rainfall 0.00 in
Snow Depth Not available.
5:36 AM 8:23 PM
Waning Crescent, 24% visible
METAR KPBG 290753Z AUTO 00000KT 8SM OVC110 19/18 A2989 RMK AO2 SLP122 T01890183
Pressure 29.89 in
Visibility 8.0 miles
Clouds Overcast 11000 ft
Dew Point 65 °F
Humidity 98%
Rainfall 0.00 in
Snow Depth Not available.
5:36 AM 8:23 PM
Waning Crescent, 24% visible
METAR KPBG 290753Z AUTO 00000KT 8SM OVC110 19/18 A2989 RMK AO2 SLP122 T01890183

10-Day Weather Forecast

Almanac

Astronomy

Jul. 29, 2016 Rise Set
Actual Time
Civil Twilight
Nautical Twilight
Astronomical Twilight
Moon
Length of Visible Light
Length of Day
Tomorrow will be .
, % of the Moon is Illuminated

Today's Extremes

State Highs State Lows

Community

WunderPhotos

Upload Photos

1,928,300 photos uploaded!

WunderBlog® & News

Nearby

Air Quality

  Air Quality AQ Index Pollutant
Not available.

Snow Depth

Station Depth Elevation

Earthquake Activity

City Distance Mag. Time & Date
Minimum magnitude displayed is 2.5.

Coastal Water Temperatures

Place Temperature

Stations

Nearby Weather Stations

Station Location Temp. Windchill Dew Point Humidity Wind Precip. Elev Updated Type
                   

Watches & Warnings

There are currently no watches in effect.